To NAV CANADA Home Page Login to a new session Search on AWWS site Feedback and Comments Disclaimer Vers la page française équivalente Tips FAQ What's new on the site To the Forecasts and Observations / NOTAM section To "File a Flight Plan" website Publications and other links Update of the User's profile FIC Telephone Numbers My Weather Data Folder Route Weather Data Regional Weather Data Local Weather Data To the Forecasts and Observations / NOTAM section
Request Generated 02/08/2016 at 14:12:54 UTC . Weather information available at that time is displayed.

METAR/TAF

FORT CHIPEWYAN/AB    (show WxCam)

METAR CYPY 081400Z AUTO 10004KT 9SM OVC120 M16/M18 A3029 RMK SLP285=
METAR CYPY 081300Z AUTO 09008KT 9SM OVC120 M16/M18 A3028 RMK SLP282=
METAR CYPY 081200Z AUTO 09008KT 9SM OVC160 M17/M19 A3029 RMK SLP285=

TAF CYPY 081238Z 0813/0822 09008KT P6SM SCT160 TEMPO 0813/0816 BKN160
RMK FCST BASED ON AUTO OBS. NXT FCST BY 081800Z=
Your time UTC time
Weather data provided by Environment Canada and NAV CANADA